sensor_id;sensor_type;location;lat;lon;timestamp;pressure;altitude;pressure_sealevel;temperature;humidity
55315;BME280;41619;42.816;23.226;2023-05-07T00:01:38;95744.91;;;8.04;69.31
55315;BME280;41619;42.816;23.226;2023-05-07T00:04:04;95749.56;;;8.04;69.68
55315;BME280;41619;42.816;23.226;2023-05-07T00:06:29;95754.94;;;8.00;69.90
55315;BME280;41619;42.816;23.226;2023-05-07T00:08:56;95750.13;;;7.97;69.60
55315;BME280;41619;42.816;23.226;2023-05-07T00:11:22;95757.06;;;7.95;69.90
55315;BME280;41619;42.816;23.226;2023-05-07T00:13:48;95760.13;;;7.93;70.27
55315;BME280;41619;42.816;23.226;2023-05-07T00:16:13;95760.47;;;7.92;69.85
55315;BME280;41619;42.816;23.226;2023-05-07T00:18:39;95750.25;;;7.88;70.26
55315;BME280;41619;42.816;23.226;2023-05-07T00:21:04;95753.31;;;7.87;70.10
55315;BME280;41619;42.816;23.226;2023-05-07T00:23:30;95750.16;;;7.85;69.90
55315;BME280;41619;42.816;23.226;2023-05-07T00:25:56;95749.25;;;7.81;69.78
55315;BME280;41619;42.816;23.226;2023-05-07T00:28:21;95757.28;;;7.77;70.00
55315;BME280;41619;42.816;23.226;2023-05-07T00:30:46;95756.03;;;7.75;70.04
55315;BME280;41619;42.816;23.226;2023-05-07T00:33:12;95746.16;;;7.70;70.23
55315;BME280;41619;42.816;23.226;2023-05-07T00:35:37;95754.22;;;7.67;70.60
55315;BME280;41619;42.816;23.226;2023-05-07T00:38:03;95758.88;;;7.66;69.94
55315;BME280;41619;42.816;23.226;2023-05-07T00:40:28;95757.63;;;7.64;70.24
55315;BME280;41619;42.816;23.226;2023-05-07T00:42:53;95756.50;;;7.65;70.70
55315;BME280;41619;42.816;23.226;2023-05-07T00:45:25;95759.56;;;7.63;70.58
55315;BME280;41619;42.816;23.226;2023-05-07T00:47:53;95761.00;;;7.60;70.82
55315;BME280;41619;42.816;23.226;2023-05-07T00:50:18;95750.91;;;7.61;70.60
55315;BME280;41619;42.816;23.226;2023-05-07T00:52:45;95761.34;;;7.59;70.68
55315;BME280;41619;42.816;23.226;2023-05-07T00:55:10;95758.16;;;7.57;70.55
55315;BME280;41619;42.816;23.226;2023-05-07T00:57:37;95766.34;;;7.57;70.89
55315;BME280;41619;42.816;23.226;2023-05-07T01:00:05;95761.91;;;7.52;70.55
55315;BME280;41619;42.816;23.226;2023-05-07T01:02:30;95764.84;;;7.47;70.19
55315;BME280;41619;42.816;23.226;2023-05-07T01:04:56;95767.19;;;7.37;70.49
55315;BME280;41619;42.816;23.226;2023-05-07T01:07:22;95773.56;;;7.28;69.93
55315;BME280;41619;42.816;23.226;2023-05-07T01:09:48;95759.56;;;7.18;71.08
55315;BME280;41619;42.816;23.226;2023-05-07T01:12:14;95764.16;;;7.05;70.64
55315;BME280;41619;42.816;23.226;2023-05-07T01:14:41;95754.84;;;6.94;70.54
55315;BME280;41619;42.816;23.226;2023-05-07T01:17:06;95749.31;;;6.82;70.06
55315;BME280;41619;42.816;23.226;2023-05-07T01:19:32;95754.97;;;6.77;70.64
55315;BME280;41619;42.816;23.226;2023-05-07T01:22:03;95764.28;;;6.76;70.53
55315;BME280;41619;42.816;23.226;2023-05-07T01:24:31;95775.22;;;6.67;70.54
55315;BME280;41619;42.816;23.226;2023-05-07T01:26:56;95777.69;;;6.60;70.16
55315;BME280;41619;42.816;23.226;2023-05-07T01:29:21;95774.69;;;6.53;70.53
55315;BME280;41619;42.816;23.226;2023-05-07T01:31:47;95780.31;;;6.48;70.70
55315;BME280;41619;42.816;23.226;2023-05-07T01:34:15;95784.50;;;6.45;70.67
55315;BME280;41619;42.816;23.226;2023-05-07T01:36:42;95774.28;;;6.42;71.06
55315;BME280;41619;42.816;23.226;2023-05-07T01:39:09;95769.19;;;6.41;71.24
55315;BME280;41619;42.816;23.226;2023-05-07T01:41:35;95766.78;;;6.39;70.85
55315;BME280;41619;42.816;23.226;2023-05-07T01:44:01;95767.59;;;6.40;71.33
55315;BME280;41619;42.816;23.226;2023-05-07T01:46:28;95767.25;;;6.41;71.86
55315;BME280;41619;42.816;23.226;2023-05-07T01:48:54;95766.91;;;6.43;71.36
55315;BME280;41619;42.816;23.226;2023-05-07T01:51:20;95766.59;;;6.44;71.65
55315;BME280;41619;42.816;23.226;2023-05-07T01:53:46;95763.53;;;6.46;71.87
55315;BME280;41619;42.816;23.226;2023-05-07T01:56:16;95756.84;;;6.43;71.72
55315;BME280;41619;42.816;23.226;2023-05-07T01:58:41;95759.56;;;6.43;72.05
55315;BME280;41619;42.816;23.226;2023-05-07T02:01:07;95753.78;;;6.45;71.94
55315;BME280;41619;42.816;23.226;2023-05-07T02:03:32;95759.22;;;6.45;72.31
55315;BME280;41619;42.816;23.226;2023-05-07T02:05:58;95754.25;;;6.47;72.06
55315;BME280;41619;42.816;23.226;2023-05-07T02:08:23;95754.25;;;6.47;72.37
55315;BME280;41619;42.816;23.226;2023-05-07T02:10:48;95748.81;;;6.47;71.86
55315;BME280;41619;42.816;23.226;2023-05-07T02:13:15;95751.19;;;6.48;72.28
55315;BME280;41619;42.816;23.226;2023-05-07T02:15:40;95756.97;;;6.47;71.79
55315;BME280;41619;42.816;23.226;2023-05-07T02:18:07;95751.88;;;6.45;72.20
55315;BME280;41619;42.816;23.226;2023-05-07T02:20:34;95750.94;;;6.41;72.65
55315;BME280;41619;42.816;23.226;2023-05-07T02:23:00;95756.72;;;6.40;72.41
55315;BME280;41619;42.816;23.226;2023-05-07T02:25:25;95756.59;;;6.36;72.26
55315;BME280;41619;42.816;23.226;2023-05-07T02:27:51;95756.44;;;6.32;72.41
55315;BME280;41619;42.816;23.226;2023-05-07T02:30:16;95751.66;;;6.29;72.31
55315;BME280;41619;42.816;23.226;2023-05-07T02:32:42;95753.13;;;6.27;72.67
55315;BME280;41619;42.816;23.226;2023-05-07T02:35:07;95751.84;;;6.24;73.11
55315;BME280;41619;42.816;23.226;2023-05-07T02:37:33;95761.47;;;6.22;72.82
55315;BME280;41619;42.816;23.226;2023-05-07T02:39:58;95751.59;;;6.17;73.27
55315;BME280;41619;42.816;23.226;2023-05-07T02:42:23;95753.34;;;6.13;72.65
55315;BME280;41619;42.816;23.226;2023-05-07T02:44:49;95752.88;;;6.11;72.59
55315;BME280;41619;42.816;23.226;2023-05-07T02:47:14;95756.28;;;6.08;72.97
55315;BME280;41619;42.816;23.226;2023-05-07T02:49:40;95756.94;;;6.05;72.93
55315;BME280;41619;42.816;23.226;2023-05-07T02:52:06;95751.69;;;6.00;72.76
55315;BME280;41619;42.816;23.226;2023-05-07T02:54:31;95752.69;;;5.95;72.73
55315;BME280;41619;42.816;23.226;2023-05-07T02:56:57;95752.53;;;5.92;73.17
55315;BME280;41619;42.816;23.226;2023-05-07T02:59:23;95758.59;;;5.89;72.66
55315;BME280;41619;42.816;23.226;2023-05-07T03:01:49;95753.81;;;5.86;72.77
55315;BME280;41619;42.816;23.226;2023-05-07T03:04:15;95750.03;;;5.78;73.28
55315;BME280;41619;42.816;23.226;2023-05-07T03:06:41;95752.25;;;5.76;72.91
55315;BME280;41619;42.816;23.226;2023-05-07T03:09:06;95758.50;;;5.76;73.04
55315;BME280;41619;42.816;23.226;2023-05-07T03:11:32;95762.63;;;5.74;73.33
55315;BME280;41619;42.816;23.226;2023-05-07T03:13:57;95759.00;;;5.70;73.07
55315;BME280;41619;42.816;23.226;2023-05-07T03:16:23;95760.59;;;5.71;72.88
55315;BME280;41619;42.816;23.226;2023-05-07T03:18:48;95769.06;;;5.69;72.83
55315;BME280;41619;42.816;23.226;2023-05-07T03:21:13;95773.22;;;5.67;73.20
55315;BME280;41619;42.816;23.226;2023-05-07T03:23:39;95775.47;;;5.65;72.97
55315;BME280;41619;42.816;23.226;2023-05-07T03:26:04;95782.81;;;5.64;73.68
55315;BME280;41619;42.816;23.226;2023-05-07T03:28:30;95778.38;;;5.60;73.11
55315;BME280;41619;42.816;23.226;2023-05-07T03:30:55;95776.78;;;5.59;73.13
55315;BME280;41619;42.816;23.226;2023-05-07T03:33:21;95777.59;;;5.59;73.17
55315;BME280;41619;42.816;23.226;2023-05-07T03:35:46;95768.31;;;5.60;73.14
55315;BME280;41619;42.816;23.226;2023-05-07T03:38:11;95773.41;;;5.62;73.21
55315;BME280;41619;42.816;23.226;2023-05-07T03:40:37;95781.56;;;5.62;73.60
55315;BME280;41619;42.816;23.226;2023-05-07T03:43:02;95778.84;;;5.62;73.42
55315;BME280;41619;42.816;23.226;2023-05-07T03:45:28;95794.66;;;5.60;73.34
55315;BME280;41619;42.816;23.226;2023-05-07T03:47:53;95788.91;;;5.61;73.31
55315;BME280;41619;42.816;23.226;2023-05-07T03:50:19;95784.59;;;5.60;73.67
55315;BME280;41619;42.816;23.226;2023-05-07T03:52:44;95791.28;;;5.63;73.19
55315;BME280;41619;42.816;23.226;2023-05-07T03:55:10;95784.75;;;5.64;73.63
55315;BME280;41619;42.816;23.226;2023-05-07T03:57:35;95794.47;;;5.65;73.77
55315;BME280;41619;42.816;23.226;2023-05-07T04:00:01;95795.41;;;5.69;73.74
55315;BME280;41619;42.816;23.226;2023-05-07T04:02:27;95798.75;;;5.74;73.37
55315;BME280;41619;42.816;23.226;2023-05-07T04:04:52;95802.91;;;5.81;73.41
55315;BME280;41619;42.816;23.226;2023-05-07T04:07:17;95807.34;;;5.85;73.78
55315;BME280;41619;42.816;23.226;2023-05-07T04:09:43;95801.25;;;5.88;73.36
55315;BME280;41619;42.816;23.226;2023-05-07T04:12:08;95808.91;;;5.95;73.97
55315;BME280;41619;42.816;23.226;2023-05-07T04:14:34;95824.72;;;6.01;73.94
55315;BME280;41619;42.816;23.226;2023-05-07T04:16:59;95821.47;;;6.08;73.90
55315;BME280;41619;42.816;23.226;2023-05-07T04:19:25;95826.72;;;6.13;74.04
55315;BME280;41619;42.816;23.226;2023-05-07T04:21:50;95829.75;;;6.20;73.42
55315;BME280;41619;42.816;23.226;2023-05-07T04:24:15;95829.22;;;6.27;73.51
55315;BME280;41619;42.816;23.226;2023-05-07T04:26:41;95831.09;;;6.35;73.91
55315;BME280;41619;42.816;23.226;2023-05-07T04:29:06;95836.47;;;6.44;73.36
55315;BME280;41619;42.816;23.226;2023-05-07T04:31:32;95833.72;;;6.52;73.45
55315;BME280;41619;42.816;23.226;2023-05-07T04:33:57;95836.72;;;6.59;74.17
55315;BME280;41619;42.816;23.226;2023-05-07T04:36:23;95831.69;;;6.70;74.00
55315;BME280;41619;42.816;23.226;2023-05-07T04:38:51;95833.66;;;6.82;73.65
55315;BME280;41619;42.816;23.226;2023-05-07T04:41:16;95838.38;;;6.93;73.35
55315;BME280;41619;42.816;23.226;2023-05-07T04:43:41;95833.78;;;7.06;73.71
55315;BME280;41619;42.816;23.226;2023-05-07T04:46:08;95831.91;;;7.19;73.11
55315;BME280;41619;42.816;23.226;2023-05-07T04:48:33;95831.97;;;7.31;73.51
55315;BME280;41619;42.816;23.226;2023-05-07T04:50:58;95838.28;;;7.44;73.68
55315;BME280;41619;42.816;23.226;2023-05-07T04:53:24;95828.19;;;7.56;73.60
55315;BME280;41619;42.816;23.226;2023-05-07T04:55:55;95841.50;;;7.70;73.53
55315;BME280;41619;42.816;23.226;2023-05-07T04:58:20;95840.41;;;7.83;73.86
55315;BME280;41619;42.816;23.226;2023-05-07T05:00:46;95828.38;;;7.97;74.12
55315;BME280;41619;42.816;23.226;2023-05-07T05:03:11;95838.97;;;8.10;73.38
55315;BME280;41619;42.816;23.226;2023-05-07T05:05:37;95835.91;;;8.24;73.64
55315;BME280;41619;42.816;23.226;2023-05-07T05:08:02;95829.66;;;8.36;73.79
55315;BME280;41619;42.816;23.226;2023-05-07T05:10:28;95836.38;;;8.50;73.69
55315;BME280;41619;42.816;23.226;2023-05-07T05:12:53;95838.31;;;8.62;73.38
55315;BME280;41619;42.816;23.226;2023-05-07T05:15:18;95834.44;;;8.75;73.83
55315;BME280;41619;42.816;23.226;2023-05-07T05:17:44;95830.50;;;8.89;73.49
55315;BME280;41619;42.816;23.226;2023-05-07T05:20:10;95829.34;;;9.02;73.46
55315;BME280;41619;42.816;23.226;2023-05-07T05:22:38;95834.78;;;9.14;73.22
55315;BME280;41619;42.816;23.226;2023-05-07T05:25:04;95832.78;;;9.27;73.54
55315;BME280;41619;42.816;23.226;2023-05-07T05:27:29;95819.88;;;9.39;73.15
55315;BME280;41619;42.816;23.226;2023-05-07T05:29:55;95826.09;;;9.52;73.15
55315;BME280;41619;42.816;23.226;2023-05-07T05:32:20;95823.28;;;9.64;73.25
55315;BME280;41619;42.816;23.226;2023-05-07T05:34:46;95830.72;;;9.80;72.91
55315;BME280;41619;42.816;23.226;2023-05-07T05:37:11;95829.50;;;9.93;72.84
55315;BME280;41619;42.816;23.226;2023-05-07T05:39:37;95826.69;;;10.05;72.70
55315;BME280;41619;42.816;23.226;2023-05-07T05:42:02;95834.06;;;10.20;72.58
55315;BME280;41619;42.816;23.226;2023-05-07T05:44:28;95836.41;;;10.34;72.75
55315;BME280;41619;42.816;23.226;2023-05-07T05:46:53;95826.97;;;10.47;72.54
55315;BME280;41619;42.816;23.226;2023-05-07T05:49:22;95829.25;;;10.61;72.33
55315;BME280;41619;42.816;23.226;2023-05-07T05:51:48;95842.88;;;10.77;72.36
55315;BME280;41619;42.816;23.226;2023-05-07T05:54:13;95838.06;;;10.89;72.48
55315;BME280;41619;42.816;23.226;2023-05-07T05:56:39;95834.06;;;11.03;72.17
55315;BME280;41619;42.816;23.226;2023-05-07T05:59:04;95835.59;;;11.19;72.13
55315;BME280;41619;42.816;23.226;2023-05-07T06:01:30;95831.22;;;11.34;71.81
55315;BME280;41619;42.816;23.226;2023-05-07T06:03:56;95826.78;;;11.49;71.59
55315;BME280;41619;42.816;23.226;2023-05-07T06:06:21;95825.50;;;11.62;71.34
55315;BME280;41619;42.816;23.226;2023-05-07T06:08:47;95829.59;;;11.72;70.97
55315;BME280;41619;42.816;23.226;2023-05-07T06:11:12;95832.19;;;11.84;71.30
55315;BME280;41619;42.816;23.226;2023-05-07T06:13:37;95828.50;;;11.96;71.05
55315;BME280;41619;42.816;23.226;2023-05-07T06:16:03;95825.13;;;12.06;70.91
55315;BME280;41619;42.816;23.226;2023-05-07T06:18:28;95824.16;;;12.18;70.63
55315;BME280;41619;42.816;23.226;2023-05-07T06:20:54;95818.19;;;12.35;70.86
55315;BME280;41619;42.816;23.226;2023-05-07T06:23:19;95817.31;;;12.54;70.74
55315;BME280;41619;42.816;23.226;2023-05-07T06:25:49;95816.81;;;12.74;70.12
55315;BME280;41619;42.816;23.226;2023-05-07T06:28:17;95812.38;;;12.93;69.75
55315;BME280;41619;42.816;23.226;2023-05-07T06:30:42;95805.81;;;13.01;69.19
55315;BME280;41619;42.816;23.226;2023-05-07T06:33:08;95810.66;;;13.11;68.81
55315;BME280;41619;42.816;23.226;2023-05-07T06:35:33;95798.91;;;13.14;68.76
55315;BME280;41619;42.816;23.226;2023-05-07T06:37:59;95791.16;;;13.20;69.01
55315;BME280;41619;42.816;23.226;2023-05-07T06:40:25;95789.75;;;13.33;68.79
55315;BME280;41619;42.816;23.226;2023-05-07T06:42:51;95785.25;;;13.51;69.06
55315;BME280;41619;42.816;23.226;2023-05-07T06:45:16;95795.31;;;13.74;68.54
55315;BME280;41619;42.816;23.226;2023-05-07T06:47:41;95782.91;;;13.90;67.94
55315;BME280;41619;42.816;23.226;2023-05-07T06:50:07;95788.94;;;14.03;67.44
55315;BME280;41619;42.816;23.226;2023-05-07T06:52:33;95786.31;;;14.17;67.36
55315;BME280;41619;42.816;23.226;2023-05-07T06:54:59;95790.31;;;14.27;67.08
55315;BME280;41619;42.816;23.226;2023-05-07T06:57:25;95786.44;;;14.32;66.52
55315;BME280;41619;42.816;23.226;2023-05-07T06:59:50;95790.88;;;14.43;66.54
55315;BME280;41619;42.816;23.226;2023-05-07T07:02:16;95787.84;;;14.56;66.03
55315;BME280;41619;42.816;23.226;2023-05-07T07:04:41;95782.72;;;14.58;65.68
55315;BME280;41619;42.816;23.226;2023-05-07T07:07:07;95781.16;;;14.57;65.39
55315;BME280;41619;42.816;23.226;2023-05-07T07:09:32;95780.00;;;14.61;65.71
55315;BME280;41619;42.816;23.226;2023-05-07T07:11:57;95777.72;;;14.74;65.28
55315;BME280;41619;42.816;23.226;2023-05-07T07:14:23;95775.06;;;14.88;64.92
55315;BME280;41619;42.816;23.226;2023-05-07T07:16:48;95789.38;;;15.11;64.77
55315;BME280;41619;42.816;23.226;2023-05-07T07:19:14;95784.31;;;15.28;64.71
55315;BME280;41619;42.816;23.226;2023-05-07T07:21:41;95776.91;;;15.46;64.14
55315;BME280;41619;42.816;23.226;2023-05-07T07:24:06;95778.19;;;15.66;63.79
55315;BME280;41619;42.816;23.226;2023-05-07T07:26:32;95772.72;;;15.84;63.49
55315;BME280;41619;42.816;23.226;2023-05-07T07:28:57;95773.09;;;15.97;63.32
55315;BME280;41619;42.816;23.226;2023-05-07T07:31:22;95784.56;;;16.06;62.88
55315;BME280;41619;42.816;23.226;2023-05-07T07:33:48;95777.88;;;16.21;62.65
55315;BME280;41619;42.816;23.226;2023-05-07T07:36:15;95782.22;;;16.40;62.17
55315;BME280;41619;42.816;23.226;2023-05-07T07:38:40;95775.91;;;16.61;61.72
55315;BME280;41619;42.816;23.226;2023-05-07T07:41:08;95776.31;;;16.67;60.96
55315;BME280;41619;42.816;23.226;2023-05-07T07:43:34;95779.09;;;16.74;60.84
55315;BME280;41619;42.816;23.226;2023-05-07T07:46:00;95778.28;;;16.80;60.10
55315;BME280;41619;42.816;23.226;2023-05-07T07:48:26;95764.03;;;16.85;59.87
55315;BME280;41619;42.816;23.226;2023-05-07T07:50:51;95782.94;;;17.05;59.69
55315;BME280;41619;42.816;23.226;2023-05-07T07:53:17;95779.38;;;17.18;59.08
55315;BME280;41619;42.816;23.226;2023-05-07T07:55:44;95773.84;;;17.18;58.55
55315;BME280;41619;42.816;23.226;2023-05-07T07:58:09;95773.00;;;17.25;58.74
55315;BME280;41619;42.816;23.226;2023-05-07T08:00:34;95768.66;;;17.35;58.13
55315;BME280;41619;42.816;23.226;2023-05-07T08:03:00;95767.38;;;17.46;58.04
55315;BME280;41619;42.816;23.226;2023-05-07T08:05:26;95759.84;;;17.58;57.98
55315;BME280;41619;42.816;23.226;2023-05-07T08:07:51;95768.50;;;17.67;57.86
55315;BME280;41619;42.816;23.226;2023-05-07T08:10:18;95758.16;;;17.85;57.46
55315;BME280;41619;42.816;23.226;2023-05-07T08:12:50;95760.78;;;18.06;56.72
55315;BME280;41619;42.816;23.226;2023-05-07T08:15:16;95758.25;;;18.26;56.24
55315;BME280;41619;42.816;23.226;2023-05-07T08:17:42;95742.56;;;18.54;55.89
55315;BME280;41619;42.816;23.226;2023-05-07T08:20:08;95745.91;;;18.83;55.15
55315;BME280;41619;42.816;23.226;2023-05-07T08:22:36;95743.38;;;18.95;54.39
55315;BME280;41619;42.816;23.226;2023-05-07T08:25:02;95745.72;;;19.00;54.20
55315;BME280;41619;42.816;23.226;2023-05-07T08:27:27;95744.38;;;19.16;53.90
55315;BME280;41619;42.816;23.226;2023-05-07T08:29:53;95736.28;;;19.28;53.52
55315;BME280;41619;42.816;23.226;2023-05-07T08:32:18;95734.50;;;19.45;53.41
55315;BME280;41619;42.816;23.226;2023-05-07T08:34:44;95741.94;;;19.55;52.84
55315;BME280;41619;42.816;23.226;2023-05-07T08:37:09;95740.56;;;19.67;52.72
55315;BME280;41619;42.816;23.226;2023-05-07T08:39:35;95735.50;;;19.89;52.38
55315;BME280;41619;42.816;23.226;2023-05-07T08:42:01;95740.34;;;20.12;51.68
55315;BME280;41619;42.816;23.226;2023-05-07T08:44:33;95743.22;;;20.32;50.95
55315;BME280;41619;42.816;23.226;2023-05-07T08:47:00;95740.38;;;20.35;49.77
55315;BME280;41619;42.816;23.226;2023-05-07T08:49:27;95737.75;;;20.24;48.49
55315;BME280;41619;42.816;23.226;2023-05-07T08:51:52;95729.66;;;20.10;48.10
55315;BME280;41619;42.816;23.226;2023-05-07T08:54:18;95728.75;;;20.17;48.19
55315;BME280;41619;42.816;23.226;2023-05-07T08:56:45;95721.34;;;20.34;48.12
55315;BME280;41619;42.816;23.226;2023-05-07T08:59:11;95725.78;;;20.54;47.59
55315;BME280;41619;42.816;23.226;2023-05-07T09:01:36;95719.19;;;20.68;47.46
55315;BME280;41619;42.816;23.226;2023-05-07T09:04:03;95703.81;;;20.83;46.90
55315;BME280;41619;42.816;23.226;2023-05-07T09:06:29;95706.25;;;21.01;46.33
55315;BME280;41619;42.816;23.226;2023-05-07T09:08:55;95701.41;;;21.05;45.53
55315;BME280;41619;42.816;23.226;2023-05-07T09:11:22;95701.75;;;21.07;43.69
55315;BME280;41619;42.816;23.226;2023-05-07T09:13:48;95689.50;;;21.05;43.75
55315;BME280;41619;42.816;23.226;2023-05-07T09:16:15;95693.25;;;21.14;44.00
55315;BME280;41619;42.816;23.226;2023-05-07T09:18:43;95687.00;;;21.30;43.85
55315;BME280;41619;42.816;23.226;2023-05-07T09:21:10;95688.22;;;21.49;43.96
55315;BME280;41619;42.816;23.226;2023-05-07T09:23:36;95690.78;;;21.60;44.14
55315;BME280;41619;42.816;23.226;2023-05-07T09:26:01;95694.97;;;21.68;43.48
55315;BME280;41619;42.816;23.226;2023-05-07T09:28:27;95685.91;;;21.64;43.70
55315;BME280;41619;42.816;23.226;2023-05-07T09:30:52;95681.72;;;21.72;43.65
55315;BME280;41619;42.816;23.226;2023-05-07T09:33:18;95683.41;;;21.86;43.34
55315;BME280;41619;42.816;23.226;2023-05-07T09:35:43;95677.97;;;21.98;42.20
55315;BME280;41619;42.816;23.226;2023-05-07T09:38:08;95679.19;;;21.97;41.94
55315;BME280;41619;42.816;23.226;2023-05-07T09:40:34;95679.09;;;22.01;42.07
55315;BME280;41619;42.816;23.226;2023-05-07T09:43:11;95676.00;;;22.15;42.49
55315;BME280;41619;42.816;23.226;2023-05-07T09:45:38;95670.69;;;22.21;42.26
55315;BME280;41619;42.816;23.226;2023-05-07T09:48:05;95670.47;;;22.28;41.67
55315;BME280;41619;42.816;23.226;2023-05-07T09:50:44;95652.53;;;22.29;41.02
55315;BME280;41619;42.816;23.226;2023-05-07T09:53:14;95659.97;;;22.35;40.88
55315;BME280;41619;42.816;23.226;2023-05-07T09:55:40;95647.72;;;22.46;40.79
55315;BME280;41619;42.816;23.226;2023-05-07T09:58:06;95658.09;;;22.45;40.04
55315;BME280;41619;42.816;23.226;2023-05-07T10:00:33;95650.63;;;22.26;39.96
55315;BME280;41619;42.816;23.226;2023-05-07T10:02:59;95652.19;;;22.27;39.63
55315;BME280;41619;42.816;23.226;2023-05-07T10:05:27;95650.88;;;22.48;39.81
55315;BME280;41619;42.816;23.226;2023-05-07T10:07:53;95648.38;;;22.66;39.05
55315;BME280;41619;42.816;23.226;2023-05-07T10:10:19;95642.63;;;22.73;38.36
55315;BME280;41619;42.816;23.226;2023-05-07T10:12:45;95639.56;;;22.84;37.88
55315;BME280;41619;42.816;23.226;2023-05-07T10:15:11;95643.19;;;22.97;38.30
55315;BME280;41619;42.816;23.226;2023-05-07T10:17:38;95639.00;;;23.18;37.99
55315;BME280;41619;42.816;23.226;2023-05-07T10:20:05;95640.91;;;23.21;36.44
55315;BME280;41619;42.816;23.226;2023-05-07T10:22:39;95642.91;;;23.08;37.23
55315;BME280;41619;42.816;23.226;2023-05-07T10:25:13;95627.94;;;23.14;36.83
55315;BME280;41619;42.816;23.226;2023-05-07T10:27:39;95627.09;;;23.30;36.89
55315;BME280;41619;42.816;23.226;2023-05-07T10:30:15;95628.44;;;23.38;37.16
55315;BME280;41619;42.816;23.226;2023-05-07T10:33:03;95614.94;;;23.49;35.98
55315;BME280;41619;42.816;23.226;2023-05-07T10:35:36;95614.38;;;23.54;36.25
55315;BME280;41619;42.816;23.226;2023-05-07T10:38:03;95607.81;;;23.61;35.76
55315;BME280;41619;42.816;23.226;2023-05-07T10:40:30;95611.84;;;23.60;35.90
55315;BME280;41619;42.816;23.226;2023-05-07T10:43:00;95611.84;;;23.73;35.25
55315;BME280;41619;42.816;23.226;2023-05-07T10:45:27;95607.50;;;23.84;35.33
55315;BME280;41619;42.816;23.226;2023-05-07T10:48:09;95603.13;;;23.83;35.55
55315;BME280;41619;42.816;23.226;2023-05-07T10:50:44;95598.88;;;23.92;36.09
55315;BME280;41619;42.816;23.226;2023-05-07T10:55:43;95600.75;;;24.07;34.11
55315;BME280;41619;42.816;23.226;2023-05-07T11:00:47;95596.63;;;23.61;34.26
55315;BME280;41619;42.816;23.226;2023-05-07T11:03:13;95598.84;;;23.41;34.04
55315;BME280;41619;42.816;23.226;2023-05-07T11:05:40;95595.91;;;23.19;34.58
55315;BME280;41619;42.816;23.226;2023-05-07T11:08:06;95607.84;;;23.19;33.92
55315;BME280;41619;42.816;23.226;2023-05-07T11:10:52;95594.03;;;23.41;34.46
55315;BME280;41619;42.816;23.226;2023-05-07T11:13:44;95588.38;;;23.70;33.55
55315;BME280;41619;42.816;23.226;2023-05-07T11:16:21;95594.25;;;23.98;33.21
55315;BME280;41619;42.816;23.226;2023-05-07T11:18:55;95590.44;;;24.17;32.63
55315;BME280;41619;42.816;23.226;2023-05-07T11:21:40;95583.84;;;24.36;31.68
55315;BME280;41619;42.816;23.226;2023-05-07T11:24:08;95577.72;;;24.51;31.88
55315;BME280;41619;42.816;23.226;2023-05-07T11:26:48;95578.00;;;24.65;31.69
55315;BME280;41619;42.816;23.226;2023-05-07T11:29:21;95571.91;;;24.80;31.62
55315;BME280;41619;42.816;23.226;2023-05-07T11:31:51;95572.28;;;24.91;31.94
55315;BME280;41619;42.816;23.226;2023-05-07T11:34:21;95576.94;;;25.06;31.99
55315;BME280;41619;42.816;23.226;2023-05-07T11:36:48;95572.03;;;25.20;31.45
55315;BME280;41619;42.816;23.226;2023-05-07T11:39:27;95563.69;;;25.29;30.86
55315;BME280;41619;42.816;23.226;2023-05-07T11:41:53;95576.19;;;25.37;31.19
55315;BME280;41619;42.816;23.226;2023-05-07T11:44:18;95565.00;;;25.46;30.97
55315;BME280;41619;42.816;23.226;2023-05-07T11:46:44;95566.56;;;25.47;31.00
55315;BME280;41619;42.816;23.226;2023-05-07T11:49:10;95558.34;;;25.53;30.31
55315;BME280;41619;42.816;23.226;2023-05-07T11:51:36;95558.53;;;25.58;30.24
55315;BME280;41619;42.816;23.226;2023-05-07T11:54:03;95555.88;;;25.64;30.20
55315;BME280;41619;42.816;23.226;2023-05-07T11:56:34;95556.13;;;25.70;30.08
55315;BME280;41619;42.816;23.226;2023-05-07T11:59:00;95559.09;;;25.75;29.94
55315;BME280;41619;42.816;23.226;2023-05-07T12:01:26;95567.50;;;25.75;29.95
55315;BME280;41619;42.816;23.226;2023-05-07T12:03:51;95559.81;;;25.66;29.52
55315;BME280;41619;42.816;23.226;2023-05-07T12:06:17;95560.38;;;25.52;29.36
55315;BME280;41619;42.816;23.226;2023-05-07T12:08:44;95546.09;;;25.28;29.53
55315;BME280;41619;42.816;23.226;2023-05-07T12:11:16;95550.41;;;25.20;28.86
55315;BME280;41619;42.816;23.226;2023-05-07T12:13:46;95546.34;;;25.12;29.29
55315;BME280;41619;42.816;23.226;2023-05-07T12:16:12;95542.78;;;24.99;28.98
55315;BME280;41619;42.816;23.226;2023-05-07T12:18:38;95539.69;;;24.97;29.32
55315;BME280;41619;42.816;23.226;2023-05-07T12:21:05;95532.72;;;25.01;29.07
55315;BME280;41619;42.816;23.226;2023-05-07T12:23:31;95541.19;;;25.11;29.40
55315;BME280;41619;42.816;23.226;2023-05-07T12:25:57;95530.09;;;25.29;29.50
55315;BME280;41619;42.816;23.226;2023-05-07T12:28:22;95540.56;;;25.47;28.98
55315;BME280;41619;42.816;23.226;2023-05-07T12:30:49;95529.56;;;25.61;28.91
55315;BME280;41619;42.816;23.226;2023-05-07T12:33:23;95535.41;;;25.76;28.63
55315;BME280;41619;42.816;23.226;2023-05-07T12:35:48;95524.97;;;25.77;28.35
55315;BME280;41619;42.816;23.226;2023-05-07T12:38:15;95515.16;;;25.72;28.03
55315;BME280;41619;42.816;23.226;2023-05-07T12:40:46;95518.28;;;25.74;28.44
55315;BME280;41619;42.816;23.226;2023-05-07T12:43:20;95507.53;;;25.82;28.00
55315;BME280;41619;42.816;23.226;2023-05-07T12:45:50;95500.09;;;25.88;28.16
55315;BME280;41619;42.816;23.226;2023-05-07T12:48:16;95498.84;;;25.89;28.06
55315;BME280;41619;42.816;23.226;2023-05-07T12:50:41;95489.00;;;25.84;28.27
55315;BME280;41619;42.816;23.226;2023-05-07T12:53:07;95493.41;;;25.85;27.99
55315;BME280;41619;42.816;23.226;2023-05-07T12:55:49;95490.13;;;25.87;27.69
55315;BME280;41619;42.816;23.226;2023-05-07T12:58:34;95492.63;;;25.85;27.90